Time;durP1;ratioP1;P1;durP2;ratioP2;P2;SDS_P1;SDS_P2;PMS_P1;PMS_P2;Temp;Humidity;BMP_temperature;BMP_pressure;BME280_temperature;BME280_humidity;BME280_pressure;Samples;Min_cycle;Max_cycle;Signal;HPM_P1;HPM_P2
2021/06/22 00:00:45;;;;;;;25.33;22.87;;;;;;;21.10;nan;98238.19;2056174;28;20233;-81
2021/06/22 00:01:46;;;;;;;25.60;23.00;;;;;;;21.18;nan;98250.59;2056043;28;20492;-80
2021/06/22 00:02:49;;;;;;;27.37;23.17;;;;;;;21.09;nan;98226.56;2047461;28;20453;-80
2021/06/22 00:03:50;;;;;;;24.83;22.33;;;;;;;21.09;nan;98247.50;2047736;28;20221;-80
2021/06/22 00:04:51;;;;;;;23.97;21.83;;;;;;;21.11;nan;98239.75;2046823;28;20466;-78
2021/06/22 00:05:52;;;;;;;25.03;22.50;;;;;;;21.17;nan;98254.47;2047562;28;20229;-78
2021/06/22 00:06:54;;;;;;;26.60;23.63;;;;;;;21.22;nan;98245.97;2055713;28;20536;-79
2021/06/22 00:07:56;;;;;;;24.70;22.40;;;;;;;21.29;nan;98229.72;2056133;28;20726;-79
2021/06/22 00:08:58;;;;;;;25.73;23.33;;;;;;;21.27;nan;98210.34;2047255;28;21047;-79
2021/06/22 00:09:58;;;;;;;30.60;23.30;;;;;;;;;;2047375;28;20570;-79
2021/06/22 00:11:00;;;;;;;26.03;23.30;;;;;;;21.24;nan;98254.50;2055317;28;20453;-79
2021/06/22 00:12:01;;;;;;;25.57;23.23;;;;;;;21.20;nan;98221.19;2058245;28;20617;-80
2021/06/22 00:13:03;;;;;;;26.40;23.30;;;;;;;21.10;nan;98217.28;2049722;28;20465;-80
2021/06/22 00:14:04;;;;;;;25.73;23.13;;;;;;;21.06;nan;98215.72;2041545;28;20463;-79
2021/06/22 00:15:09;;;;;;;25.00;22.50;;;;;;;21.04;nan;98212.63;2049882;28;20489;-80
2021/06/22 00:16:09;;;;;;;24.97;22.60;;;;;;;;;;2047860;28;20234;-80
2021/06/22 00:17:11;;;;;;;26.20;23.57;;;;;;;21.02;nan;98275.38;2046889;28;20462;-80
2021/06/22 00:18:14;;;;;;;25.37;22.97;;;;;;;21.08;nan;98230.44;2055125;28;20257;-80
2021/06/22 00:19:16;;;;;;;28.90;23.00;;;;;;;;;;2047175;28;20461;-80
2021/06/22 00:20:18;;;;;;;25.50;22.97;;;;;;;21.10;nan;98243.63;2047132;28;20948;-80
2021/06/22 00:21:20;;;;;;;25.57;22.93;;;;;;;21.02;nan;98231.97;2047413;28;20462;-80
2021/06/22 00:22:21;;;;;;;25.77;23.13;;;;;;;21.01;nan;98240.50;2047309;28;20450;-80
2021/06/22 00:23:23;;;;;;;27.47;22.40;;;;;;;21.01;nan;98283.91;2047257;28;20517;-80
2021/06/22 00:24:23;;;;;;;25.70;23.50;;;;;;;21.03;nan;98243.63;2046732;28;20665;-80
2021/06/22 00:25:26;;;;;;;25.33;22.93;;;;;;;21.00;nan;98245.16;2046934;28;20850;-80
2021/06/22 00:26:27;;;;;;;26.50;22.70;;;;;;;21.09;nan;98253.69;2047181;28;20309;-80
2021/06/22 00:27:28;;;;;;;24.70;22.20;;;;;;;21.16;nan;98247.50;2039314;29;20466;-80
2021/06/22 00:28:29;;;;;;;24.93;22.43;;;;;;;21.18;nan;98234.34;2046866;28;20229;-80
2021/06/22 00:29:31;;;;;;;26.03;23.43;;;;;;;;;;2054915;28;20473;-80
2021/06/22 00:30:32;;;;;;;25.90;23.33;;;;;;;21.29;nan;98256.88;2047095;28;20629;-80
2021/06/22 00:31:33;;;;;;;25.97;23.57;;;;;;;;;;2047035;28;20454;-80
2021/06/22 00:32:34;;;;;;;26.40;23.63;;;;;;;21.39;nan;98245.25;2046971;28;20233;-80
2021/06/22 00:35:37;;;;;;;25.13;22.60;;;;;;;21.34;nan;98232.03;2046194;28;20545;-80
2021/06/22 00:36:38;;;;;;;26.03;23.73;;;;;;;21.41;nan;98232.06;2046528;28;20462;-80
2021/06/22 00:37:40;;;;;;;26.03;23.43;;;;;;;21.35;nan;98244.44;2038767;29;20949;-80
2021/06/22 00:38:41;;;;;;;26.50;23.80;;;;;;;21.31;nan;98221.97;2038897;29;20230;-79
2021/06/22 00:39:43;;;;;;;25.53;22.73;;;;;;;21.36;nan;98229.72;2038974;29;20466;-79
2021/06/22 00:40:44;;;;;;;26.17;23.17;;;;;;;21.26;nan;98218.84;2047086;28;20222;-79
2021/06/22 00:41:46;;;;;;;27.87;22.57;;;;;;;;;;2046980;28;20514;-79
2021/06/22 00:42:47;;;;;;;24.77;22.57;;;;;;;21.20;nan;98232.03;2047181;28;20453;-79
2021/06/22 00:43:50;;;;;;;27.53;24.10;;;;;;;;;;2046960;28;20468;-79
2021/06/22 00:44:54;;;;;;;26.10;23.37;;;;;;;21.10;nan;98243.63;2039239;29;20471;-79
2021/06/22 00:45:58;;;;;;;25.80;23.13;;;;;;;20.93;nan;98233.53;2047130;28;20549;-79
2021/06/22 00:46:59;;;;;;;25.27;22.77;;;;;;;20.93;nan;98218.03;2046851;28;20450;-79
2021/06/22 00:48:00;;;;;;;25.70;23.10;;;;;;;;;;2046945;28;20470;-80
2021/06/22 00:49:04;;;;;;;25.50;23.10;;;;;;;;;;2054566;28;20284;-79
2021/06/22 00:50:10;;;;;;;28.13;23.57;;;;;;;20.65;nan;98175.38;2038973;28;20458;-79
2021/06/22 00:51:19;;;;;;;29.33;24.00;;;;;;;;;;2040024;29;20458;-79
2021/06/22 00:52:21;;;;;;;24.97;22.70;;;;;;;;;;2039047;29;20458;-79
2021/06/22 00:53:22;;;;;;;24.97;22.57;;;;;;;20.69;nan;98208.69;2046843;28;20470;-79
2021/06/22 00:54:25;;;;;;;26.30;23.60;;;;;;;20.65;nan;98228.81;2046419;28;20466;-79
2021/06/22 00:55:30;;;;;;;26.50;23.17;;;;;;;20.61;nan;98201.72;2054863;28;20453;-79
2021/06/22 00:56:34;;;;;;;25.47;23.27;;;;;;;20.62;nan;98203.25;2047172;28;20517;-79
2021/06/22 00:57:35;;;;;;;25.97;23.17;;;;;;;20.52;nan;98220.28;2038988;29;20446;-79
2021/06/22 00:58:37;;;;;;;27.13;24.63;;;;;;;20.52;nan;98198.59;2039069;28;20470;-78
2021/06/22 00:59:38;;;;;;;27.13;24.43;;;;;;;20.45;nan;98199.34;2038503;28;20314;-79
2021/06/22 01:00:40;;;;;;;32.13;24.20;;;;;;;20.45;nan;98198.56;2038818;29;20871;-79
2021/06/22 01:01:40;;;;;;;28.47;25.07;;;;;;;20.32;nan;98189.97;2038857;29;20529;-79
2021/06/22 01:02:42;;;;;;;32.70;24.50;;;;;;;20.38;nan;98204.69;2046729;28;20952;-79
2021/06/22 01:06:00;;;;;;;31.47;26.37;;;;;;;20.37;nan;98203.16;2053915;28;20460;-81
2021/06/22 01:07:04;;;;;;;31.37;25.87;;;;;;;20.35;nan;98204.69;2046559;28;20454;-81
2021/06/22 01:08:05;;;;;;;27.30;24.47;;;;;;;;;;2038502;29;20458;-79
2021/06/22 01:09:08;;;;;;;27.73;24.60;;;;;;;20.32;nan;98228.66;2039102;29;20534;-79
2021/06/22 01:10:10;;;;;;;27.90;24.67;;;;;;;20.28;nan;98216.28;2038817;29;20481;-79
2021/06/22 01:11:21;;;;;;;27.27;24.60;;;;;;;20.23;nan;98209.28;2040195;29;20952;-79
2021/06/22 01:12:22;;;;;;;32.87;24.20;;;;;;;20.24;nan;98205.44;2038967;29;20459;-81
2021/06/22 01:13:24;;;;;;;27.80;24.43;;;;;;;;;;2038303;29;20451;-81
2021/06/22 01:14:25;;;;;;;27.77;24.87;;;;;;;20.18;nan;98201.53;2037770;29;20463;-81
2021/06/22 01:15:29;;;;;;;28.70;24.07;;;;;;;20.09;nan;98192.19;2038734;29;20471;-81
2021/06/22 01:16:36;;;;;;;28.77;25.47;;;;;;;20.25;nan;98222.47;2049312;28;20835;-81
2021/06/22 01:17:39;;;;;;;27.97;25.27;;;;;;;20.26;nan;98213.19;2055513;28;20947;-81
2021/06/22 01:18:40;;;;;;;29.87;24.03;;;;;;;20.28;nan;98206.22;2047931;28;20962;-78
2021/06/22 01:20:01;;;;;;;28.67;24.13;;;;;;;;;;2042005;28;20489;-81
2021/06/22 01:21:13;;;;;;;27.50;24.27;;;;;;;20.03;nan;98135.69;2048915;28;20461;-79
2021/06/22 01:22:19;;;;;;;28.17;25.10;;;;;;;;;;2048513;28;20454;-81
2021/06/22 01:23:22;;;;;;;28.00;25.40;;;;;;;20.36;nan;98190.00;2040380;29;20497;-78
2021/06/22 01:24:24;;;;;;;26.97;24.30;;;;;;;22.40;100.00;124785.13;2039810;29;21051;-78
2021/06/22 01:25:28;;;;;;;27.03;24.03;;;;;;;20.42;nan;98188.47;2040933;28;20471;-81
2021/06/22 01:26:31;;;;;;;27.10;24.47;;;;;;;20.40;nan;98196.19;2040137;29;20607;-81
2021/06/22 01:27:33;;;;;;;25.63;22.87;;;;;;;20.36;nan;98217.09;2040745;28;20951;-79
2021/06/22 01:28:35;;;;;;;28.03;25.03;;;;;;;20.32;nan;98174.47;2048266;28;20449;-79
2021/06/22 01:29:47;;;;;;;27.10;24.50;;;;;;;20.26;nan;98169.84;2049406;28;20516;-81
2021/06/22 01:30:53;;;;;;;26.30;23.60;;;;;;;;;;2056138;28;20472;-79
2021/06/22 01:31:55;;;;;;;29.73;23.90;;;;;;;20.21;nan;98168.25;2047850;28;20784;-81
2021/06/22 01:33:03;;;;;;;27.23;24.37;;;;;;;;;;2040424;28;20466;-81
2021/06/22 01:34:05;;;;;;;29.23;24.40;;;;;;;;;;2040855;28;20459;-78
2021/06/22 01:35:08;;;;;;;31.53;24.43;;;;;;;20.09;nan;98203.03;2048272;28;20489;-79
2021/06/22 01:36:12;;;;;;;30.87;23.70;;;;;;;19.97;nan;98158.88;2048019;28;20222;-79
2021/06/22 01:37:14;;;;;;;28.77;24.87;;;;;;;20.14;nan;98178.28;2040299;29;21055;-79
2021/06/22 01:38:19;;;;;;;26.70;24.00;;;;;;;20.14;nan;98157.38;2041015;29;20473;-79
2021/06/22 01:39:21;;;;;;;26.30;23.80;;;;;;;20.36;nan;98207.03;2048372;28;20525;-79
2021/06/22 01:40:22;;;;;;;26.10;23.50;;;;;;;20.52;nan;98182.31;2056016;28;20229;-79
2021/06/22 01:41:24;;;;;;;26.60;23.97;;;;;;;;;;2047855;28;20475;-79
2021/06/22 01:42:26;;;;;;;27.53;24.50;;;;;;;20.51;nan;98213.31;2055964;28;20460;-79
2021/06/22 01:43:28;;;;;;;26.67;23.87;;;;;;;;;;2048115;28;20515;-79
2021/06/22 01:44:30;;;;;;;26.30;23.67;;;;;;;;;;2048279;28;20537;-79
2021/06/22 01:45:34;;;;;;;27.70;24.40;;;;;;;20.72;nan;98180.03;2048108;28;20456;-79
2021/06/22 01:46:35;;;;;;;26.67;23.87;;;;;;;20.66;nan;98171.50;2048152;28;20491;-79
2021/06/22 01:47:37;;;;;;;32.17;24.50;;;;;;;;;;2040078;28;20492;-79
2021/06/22 01:48:39;;;;;;;26.63;23.97;;;;;;;20.59;nan;98193.97;2039993;28;20802;-79
2021/06/22 01:49:42;;;;;;;28.63;23.77;;;;;;;20.58;nan;98186.97;2048087;28;20489;-79
2021/06/22 01:50:43;;;;;;;35.03;24.93;;;;;;;;;;2056010;28;20460;-79
2021/06/22 01:51:50;;;;;;;26.83;23.67;;;;;;;20.36;nan;98179.16;2048084;28;20545;-79
2021/06/22 01:52:51;;;;;;;27.23;23.73;;;;;;;20.39;nan;98195.41;2040162;29;20985;-79
2021/06/22 01:53:54;;;;;;;34.47;23.30;;;;;;;20.31;nan;98210.84;2047772;28;20478;-79
2021/06/22 01:54:58;;;;;;;26.30;23.83;;;;;;;20.32;nan;98190.72;2047821;28;20465;-79
2021/06/22 01:56:00;;;;;;;27.63;23.37;;;;;;;20.28;nan;98195.38;2040580;29;20566;-79
2021/06/22 01:57:03;;;;;;;26.50;23.73;;;;;;;20.26;nan;98191.50;2048402;28;20469;-79
2021/06/22 01:58:09;;;;;;;26.57;23.77;;;;;;;20.26;nan;98192.28;2048021;28;20492;-79
2021/06/22 01:59:40;;;;;;;26.57;23.77;;;;;;;20.26;nan;98197.69;2048756;28;21020;-80
2021/06/22 02:00:45;;;;;;;26.60;23.30;;;;;;;20.24;nan;98215.47;2047542;28;20925;-79
2021/06/22 02:01:47;;;;;;;26.53;23.90;;;;;;;20.40;nan;98212.44;2040459;29;20461;-79
2021/06/22 02:03:13;;;;;;;26.37;23.70;;;;;;;20.39;nan;98221.72;2050194;28;20795;-79
2021/06/22 02:04:17;;;;;;;25.90;23.40;;;;;;;20.30;nan;98224.78;2048282;28;20481;-79
2021/06/22 02:05:18;;;;;;;25.63;23.03;;;;;;;20.21;nan;98211.59;2047827;28;20458;-79
2021/06/22 02:06:20;;;;;;;26.60;23.63;;;;;;;20.15;nan;98207.69;2048150;28;20999;-79
2021/06/22 02:07:42;;;;;;;26.13;23.37;;;;;;;20.11;nan;98228.56;2050075;28;20564;-79
2021/06/22 02:08:53;;;;;;;28.83;23.40;;;;;;;20.07;nan;98222.38;2047856;28;20496;-79
2021/06/22 02:09:54;;;;;;;28.13;23.13;;;;;;;19.97;nan;98169.69;2047806;28;20525;-79
2021/06/22 02:11:02;;;;;;;25.80;23.07;;;;;;;19.96;nan;98210.69;2047891;28;20979;-79
2021/06/22 02:12:10;;;;;;;25.83;23.23;;;;;;;;;;2048276;28;20552;-79
2021/06/22 02:13:14;;;;;;;28.13;23.43;;;;;;;19.91;nan;98198.31;2047953;28;20532;-79
2021/06/22 02:14:29;;;;;;;27.57;22.43;;;;;;;19.92;nan;98204.50;2041870;28;20451;-79
2021/06/22 02:15:32;;;;;;;25.27;22.90;;;;;;;19.91;nan;98203.72;2040184;29;21040;-79
2021/06/22 02:16:33;;;;;;;24.70;22.33;;;;;;;20.01;nan;98208.41;2040300;28;20463;-79
2021/06/22 02:17:39;;;;;;;25.37;22.93;;;;;;;19.98;nan;98208.38;2040018;28;20463;-79
2021/06/22 02:18:40;;;;;;;25.33;23.03;;;;;;;19.96;nan;98210.69;2047942;28;20473;-79
2021/06/22 02:19:42;;;;;;;25.27;22.93;;;;;;;19.90;nan;98233.88;2047770;28;20509;-79
2021/06/22 02:20:50;;;;;;;24.73;22.20;;;;;;;20.06;nan;98226.22;2048187;28;20651;-78
2021/06/22 02:21:53;;;;;;;30.30;22.90;;;;;;;20.12;nan;98219.28;2048205;28;21075;-78
2021/06/22 02:23:01;;;;;;;25.87;22.97;;;;;;;20.02;nan;98198.34;2047534;28;20945;-78
2021/06/22 02:24:03;;;;;;;24.97;22.47;;;;;;;;;;2048082;28;21083;-78
2021/06/22 02:25:07;;;;;;;25.10;22.80;;;;;;;20.17;nan;98199.97;2040209;28;20447;-78
2021/06/22 02:26:09;;;;;;;25.13;22.53;;;;;;;;;;2040070;28;20550;-78
2021/06/22 02:27:21;;;;;;;24.00;21.80;;;;;;;20.32;nan;98206.97;2030873;29;20463;-79
2021/06/22 02:28:23;;;;;;;24.87;22.47;;;;;;;20.24;nan;98204.63;2041119;29;20470;-79
2021/06/22 02:29:23;;;;;;;24.20;21.67;;;;;;;20.16;nan;98198.44;2047381;28;20558;-79
2021/06/22 02:30:26;;;;;;;27.00;23.07;;;;;;;20.09;nan;98203.81;2055836;28;21013;-79
2021/06/22 02:31:27;;;;;;;27.13;22.53;;;;;;;19.96;nan;98195.22;2047956;28;20482;-79
2021/06/22 02:32:30;;;;;;;25.27;22.70;;;;;;;;;;2047824;28;20489;-79
2021/06/22 02:33:38;;;;;;;33.13;22.50;;;;;;;;;;2048512;28;20461;-78
2021/06/22 02:34:42;;;;;;;25.13;22.73;;;;;;;20.17;nan;98199.97;2047766;28;20457;-79
2021/06/22 02:35:43;;;;;;;24.50;22.13;;;;;;;;;;2048077;28;20454;-79
2021/06/22 02:36:47;;;;;;;24.97;22.37;;;;;;;20.22;nan;98207.72;2047830;28;20808;-78
2021/06/22 02:37:55;;;;;;;25.03;22.63;;;;;;;20.16;nan;98186.81;2040580;28;20467;-79
2021/06/22 02:39:01;;;;;;;24.43;22.03;;;;;;;20.25;nan;98211.63;2040217;28;20495;-79
2021/06/22 02:40:02;;;;;;;26.20;23.40;;;;;;;20.21;nan;98217.00;2040148;29;20459;-79
2021/06/22 02:41:04;;;;;;;27.97;22.57;;;;;;;20.15;nan;98256.44;2040063;29;20535;-78
2021/06/22 02:42:08;;;;;;;24.33;21.90;;;;;;;20.20;nan;98220.09;2040072;28;20458;-79
2021/06/22 02:43:10;;;;;;;25.53;22.57;;;;;;;20.19;nan;98230.16;2039872;28;20976;-78
2021/06/22 02:44:11;;;;;;;25.90;22.27;;;;;;;20.29;nan;98261.16;2047661;28;20465;-79
2021/06/22 02:45:19;;;;;;;27.13;23.17;;;;;;;20.46;nan;98248.88;2040551;29;20459;-78
2021/06/22 02:46:19;;;;;;;24.60;22.20;;;;;;;20.59;nan;98253.59;2040150;28;20534;-79
2021/06/22 02:47:23;;;;;;;25.17;22.30;;;;;;;20.55;nan;98241.19;2039881;28;20463;-79
2021/06/22 02:48:24;;;;;;;27.60;22.30;;;;;;;20.68;nan;98266.00;2039620;29;21008;-79
2021/06/22 02:49:28;;;;;;;26.07;23.60;;;;;;;20.75;nan;98255.94;2040311;28;20461;-79
2021/06/22 02:50:29;;;;;;;26.80;23.30;;;;;;;20.81;nan;98254.41;2040126;28;20525;-79
2021/06/22 02:51:31;;;;;;;27.17;23.20;;;;;;;20.88;nan;98259.88;2047779;28;20501;-78
2021/06/22 02:52:32;;;;;;;27.73;24.80;;;;;;;20.86;nan;98256.78;2047662;28;20872;-79
2021/06/22 02:53:34;;;;;;;27.13;24.43;;;;;;;;;;2039834;28;20447;-79
2021/06/22 02:54:38;;;;;;;27.57;24.77;;;;;;;;;;2048124;28;20218;-79
2021/06/22 02:55:40;;;;;;;26.77;24.10;;;;;;;20.55;nan;98284.53;2047476;28;20460;-79
2021/06/22 02:56:44;;;;;;;30.40;24.07;;;;;;;20.59;nan;98247.41;2040419;29;20447;-79
2021/06/22 02:57:48;;;;;;;25.77;23.00;;;;;;;20.49;nan;98253.53;2047838;28;20546;-79
2021/06/22 02:58:50;;;;;;;28.67;24.10;;;;;;;20.44;nan;98262.03;2047942;28;20457;-79
2021/06/22 02:59:55;;;;;;;26.20;23.43;;;;;;;20.39;nan;98248.81;2047092;28;21102;-79
2021/06/22 03:00:59;;;;;;;26.23;23.37;;;;;;;20.54;nan;98250.47;2040144;29;20921;-79
2021/06/22 03:02:03;;;;;;;26.90;22.87;;;;;;;20.56;nan;98248.91;2040233;29;20466;-79
2021/06/22 03:03:06;;;;;;;26.73;22.83;;;;;;;20.60;nan;98260.56;2047587;28;20491;-79
2021/06/22 03:04:11;;;;;;;24.67;22.40;;;;;;;20.60;nan;98255.16;2047307;28;20980;-79
2021/06/22 03:05:15;;;;;;;30.07;24.23;;;;;;;20.45;nan;98247.34;2047924;28;20455;-79
2021/06/22 03:06:17;;;;;;;32.90;23.60;;;;;;;20.39;nan;98244.19;2047588;28;20990;-79
2021/06/22 03:07:39;;;;;;;26.63;23.83;;;;;;;20.23;nan;98241.78;2036416;28;20463;-79
2021/06/22 03:08:40;;;;;;;26.43;23.83;;;;;;;20.19;nan;98278.91;2047248;28;20461;-79
2021/06/22 03:09:43;;;;;;;28.37;23.50;;;;;;;20.23;nan;98251.84;2039742;29;20463;-79
2021/06/22 03:10:45;;;;;;;26.53;23.73;;;;;;;20.27;nan;98258.06;2047725;28;20879;-79
2021/06/22 03:11:47;;;;;;;27.73;23.40;;;;;;;20.19;nan;98261.91;2047355;28;20454;-79
2021/06/22 03:12:52;;;;;;;28.30;23.03;;;;;;;20.13;nan;98253.34;2040170;29;20470;-79
2021/06/22 03:14:00;;;;;;;26.27;23.77;;;;;;;20.15;nan;98255.66;2047874;28;20466;-79
2021/06/22 03:15:14;;;;;;;27.83;23.73;;;;;;;20.09;nan;98257.19;2046959;28;20490;-79
2021/06/22 03:16:16;;;;;;;26.07;23.77;;;;;;;20.08;nan;98256.44;2047699;28;20573;-79
2021/06/22 03:17:17;;;;;;;26.30;23.70;;;;;;;20.03;nan;98249.41;2047488;28;20458;-79
2021/06/22 03:18:20;;;;;;;26.43;23.73;;;;;;;20.00;nan;98250.19;2039702;29;20562;-79
2021/06/22 03:19:22;;;;;;;27.13;24.20;;;;;;;19.99;nan;98242.44;2047263;28;20465;-79
2021/06/22 03:20:30;;;;;;;25.10;22.67;;;;;;;20.17;nan;98286.66;2040349;28;20495;-79
2021/06/22 03:21:31;;;;;;;25.33;22.70;;;;;;;20.19;nan;98261.91;2047479;28;20526;-80
2021/06/22 03:22:33;;;;;;;25.80;23.20;;;;;;;;;;2047249;28;20864;-79
2021/06/22 03:23:34;;;;;;;25.80;23.30;;;;;;;;;;2039470;29;20858;-79
2021/06/22 03:24:37;;;;;;;29.93;24.17;;;;;;;20.19;nan;98284.34;2039729;29;20811;-80
2021/06/22 03:25:40;;;;;;;27.20;23.50;;;;;;;20.25;nan;98287.47;2039324;28;20983;-80
2021/06/22 03:26:42;;;;;;;26.50;23.60;;;;;;;;;;2039582;28;20447;-80
2021/06/22 03:27:44;;;;;;;27.43;24.00;;;;;;;;;;2047680;28;21018;-80
2021/06/22 03:29:04;;;;;;;26.60;23.87;;;;;;;20.03;nan;98233.19;2047301;28;20991;-80
2021/06/22 03:30:23;;;;;;;26.30;23.10;;;;;;;20.31;nan;98264.25;2041065;28;20541;-79
2021/06/22 03:31:25;;;;;;;26.90;23.60;;;;;;;20.38;nan;98258.88;2047462;28;20620;-80
2021/06/22 03:32:26;;;;;;;26.70;24.17;;;;;;;20.40;nan;98255.78;2047291;28;20225;-79
2021/06/22 03:33:28;;;;;;;26.87;24.17;;;;;;;20.32;nan;98250.34;2047267;28;20457;-80
2021/06/22 03:34:28;;;;;;;27.27;23.10;;;;;;;20.52;nan;98263.63;2055393;28;20461;-80
2021/06/22 03:35:30;;;;;;;27.23;23.30;;;;;;;20.44;nan;98245.78;2055982;28;20484;-79
2021/06/22 03:36:32;;;;;;;27.57;23.60;;;;;;;20.59;nan;98275.28;2047070;28;20351;-79
2021/06/22 03:37:33;;;;;;;27.50;23.37;;;;;;;;;;2047275;28;20469;-79
2021/06/22 03:38:35;;;;;;;26.07;23.37;;;;;;;20.62;nan;98272.97;2039360;29;21004;-79
2021/06/22 03:39:36;;;;;;;25.30;22.80;;;;;;;20.69;nan;98252.06;2046484;28;20233;-79
2021/06/22 03:40:38;;;;;;;27.77;23.00;;;;;;;20.78;nan;98282.31;2055973;28;20492;-79
2021/06/22 03:41:40;;;;;;;25.17;22.77;;;;;;;20.74;nan;98303.19;2055194;28;20473;-79
2021/06/22 03:42:45;;;;;;;26.80;23.00;;;;;;;20.75;nan;98283.06;2047396;28;20933;-79
2021/06/22 03:43:46;;;;;;;24.47;22.17;;;;;;;;;;2047549;28;20465;-79
2021/06/22 03:44:48;;;;;;;30.03;22.80;;;;;;;20.69;nan;98279.19;2047139;28;20477;-79
2021/06/22 03:45:53;;;;;;;25.70;23.07;;;;;;;20.73;nan;98285.38;2046835;28;20838;-79
2021/06/22 03:46:56;;;;;;;25.37;22.83;;;;;;;20.73;nan;98274.53;2047486;28;20549;-79
2021/06/22 03:47:57;;;;;;;29.40;23.37;;;;;;;20.85;nan;98276.91;2047092;28;20528;-79
2021/06/22 03:48:59;;;;;;;25.43;22.87;;;;;;;;;;2047395;28;20517;-79
2021/06/22 03:50:03;;;;;;;26.00;23.33;;;;;;;20.81;nan;98265.25;2047472;28;20514;-79
2021/06/22 03:51:05;;;;;;;25.77;23.33;;;;;;;;;;2046806;28;20485;-79
2021/06/22 03:52:09;;;;;;;25.37;23.10;;;;;;;20.93;nan;98283.09;2046635;28;20808;-79
2021/06/22 03:53:11;;;;;;;26.00;23.50;;;;;;;21.02;nan;98291.66;2039161;29;20463;-79
2021/06/22 03:54:11;;;;;;;25.50;23.10;;;;;;;21.03;nan;98281.59;2047034;28;20313;-79
2021/06/22 03:55:29;;;;;;;25.73;23.07;;;;;;;21.07;nan;98255.25;2047203;28;20470;-80
2021/06/22 03:57:00;;;;;;;25.93;23.30;;;;;;;21.11;nan;98300.22;2051915;28;20461;-79
2021/06/22 03:58:21;;;;;;;26.27;23.90;;;;;;;21.06;nan;98297.09;2054103;28;20476;-79
2021/06/22 03:59:25;;;;;;;28.47;24.40;;;;;;;;;;2046684;28;20474;-79
2021/06/22 04:00:27;;;;;;;28.50;24.87;;;;;;;;;;2047125;28;20490;-79
2021/06/22 04:01:35;;;;;;;26.43;23.83;;;;;;;21.01;nan;98294.75;2047217;28;20493;-79
2021/06/22 04:02:36;;;;;;;25.33;22.77;;;;;;;21.19;nan;98290.13;2047160;28;20525;-79
2021/06/22 04:03:37;;;;;;;25.37;22.87;;;;;;;21.16;nan;98301.78;2046841;28;20442;-79
2021/06/22 04:05:06;;;;;;;27.67;23.03;;;;;;;21.19;nan;98322.69;2028008;28;20282;-80
2021/06/22 04:06:16;;;;;;;28.63;24.00;;;;;;;21.27;nan;98285.53;2046585;28;20936;-80
2021/06/22 04:07:18;;;;;;;26.77;24.23;;;;;;;;;;2047181;28;20468;-80
2021/06/22 04:08:19;;;;;;;25.97;23.20;;;;;;;21.34;nan;98313.47;2047657;28;20463;-80
2021/06/22 04:09:25;;;;;;;27.30;23.10;;;;;;;21.39;nan;98282.47;2047046;28;20540;-80
2021/06/22 04:10:28;;;;;;;26.17;23.70;;;;;;;21.42;nan;98282.44;2047367;28;20454;-80
2021/06/22 04:11:30;;;;;;;27.63;23.90;;;;;;;21.42;nan;98287.88;2046968;28;20477;-80
2021/06/22 04:12:34;;;;;;;30.63;24.67;;;;;;;21.45;nan;98292.53;2047064;28;20458;-80
2021/06/22 04:13:37;;;;;;;29.77;25.40;;;;;;;;;;2047049;28;20983;-79
2021/06/22 04:14:41;;;;;;;26.97;23.57;;;;;;;21.49;nan;98286.34;2046571;28;20918;-80
2021/06/22 04:15:43;;;;;;;34.00;25.40;;;;;;;21.49;nan;98249.13;2046993;28;20477;-80
2021/06/22 04:16:44;;;;;;;32.27;24.87;;;;;;;21.53;nan;98292.53;2039090;29;20265;-79
2021/06/22 04:17:47;;;;;;;28.17;25.47;;;;;;;21.59;nan;98286.34;2047185;28;20964;-80
2021/06/22 04:18:48;;;;;;;28.87;26.00;;;;;;;21.58;nan;98284.00;2039314;29;20455;-80
2021/06/22 04:20:00;;;;;;;36.73;26.67;;;;;;;21.50;nan;98277.81;2040042;28;20443;-80
2021/06/22 04:21:01;;;;;;;28.53;25.60;;;;;;;21.47;nan;98284.03;2040006;28;20506;-80
2021/06/22 04:22:09;;;;;;;32.57;26.57;;;;;;;21.42;nan;98292.53;2047329;28;20545;-80
2021/06/22 04:23:16;;;;;;;29.87;26.70;;;;;;;;;;2046948;28;20478;-80
2021/06/22 04:24:18;;;;;;;30.10;27.10;;;;;;;21.28;nan;98266.16;2046794;28;20466;-80
2021/06/22 04:25:20;;;;;;;32.30;27.20;;;;;;;;;;2038984;28;20459;-80
2021/06/22 04:26:22;;;;;;;34.30;27.87;;;;;;;21.27;nan;98291.72;2038885;29;20451;-80
2021/06/22 04:27:23;;;;;;;33.00;28.00;;;;;;;21.18;nan;98288.59;2046096;28;20226;-79
2021/06/22 04:28:26;;;;;;;33.00;28.50;;;;;;;21.22;nan;98283.19;2055020;28;20447;-80
2021/06/22 04:29:27;;;;;;;37.40;29.03;;;;;;;21.21;nan;98287.84;2046732;28;20466;-80
2021/06/22 04:30:29;;;;;;;30.90;27.00;;;;;;;21.22;nan;98283.19;2038788;29;20933;-80
2021/06/22 04:31:30;;;;;;;32.10;28.60;;;;;;;21.21;nan;98282.41;2038945;28;20226;-80
2021/06/22 04:32:32;;;;;;;33.83;28.90;;;;;;;21.17;nan;98293.25;2039020;29;20502;-80
2021/06/22 04:33:33;;;;;;;37.07;28.10;;;;;;;;;;2038856;29;20451;-80
2021/06/22 04:34:34;;;;;;;38.40;29.47;;;;;;;21.16;nan;98286.25;2047235;28;20477;-80
2021/06/22 04:35:35;;;;;;;36.97;28.93;;;;;;;;;;2054857;28;20272;-80
2021/06/22 04:36:37;;;;;;;33.47;28.20;;;;;;;21.17;nan;98276.97;2046719;28;20438;-81
2021/06/22 04:37:39;;;;;;;36.53;28.90;;;;;;;21.15;nan;98273.88;2037832;29;20234;-80
2021/06/22 04:38:41;;;;;;;32.47;28.87;;;;;;;21.19;nan;98257.59;2031228;29;20464;-80
2021/06/22 04:39:42;;;;;;;33.53;29.03;;;;;;;21.23;nan;98296.38;2047029;28;20480;-80
2021/06/22 04:40:44;;;;;;;39.10;29.33;;;;;;;21.33;nan;98284.00;2055291;28;20453;-80
2021/06/22 04:41:45;;;;;;;33.17;29.27;;;;;;;21.26;nan;98273.09;2046770;28;20244;-80
2021/06/22 04:42:47;;;;;;;31.90;27.57;;;;;;;21.34;nan;98291.75;2038918;28;20522;-80
2021/06/22 04:43:50;;;;;;;34.47;28.10;;;;;;;21.30;nan;98290.97;2046732;28;20285;-80
2021/06/22 04:44:52;;;;;;;30.53;27.37;;;;;;;21.25;nan;98282.41;2036987;28;20454;-80
2021/06/22 04:45:53;;;;;;;32.13;28.80;;;;;;;21.42;nan;98297.97;2037193;28;20480;-79
2021/06/22 04:46:55;;;;;;;31.60;27.20;;;;;;;21.35;nan;98308.81;2046544;28;20936;-80
2021/06/22 04:47:57;;;;;;;33.70;28.40;;;;;;;21.19;nan;98263.00;2045622;28;20466;-80
2021/06/22 04:48:59;;;;;;;35.40;29.47;;;;;;;21.39;nan;98299.53;2046695;28;20462;-80
2021/06/22 04:50:00;;;;;;;34.40;29.53;;;;;;;21.36;nan;98294.84;2046793;28;20468;-80
2021/06/22 04:51:02;;;;;;;31.83;28.27;;;;;;;21.43;nan;98304.94;2047286;28;20466;-81
2021/06/22 04:52:02;;;;;;;37.93;29.07;;;;;;;;;;2048498;28;20261;-80
2021/06/22 04:53:04;;;;;;;32.93;28.53;;;;;;;;;;2048379;28;20481;-80
2021/06/22 04:54:07;;;;;;;37.23;29.20;;;;;;;21.33;nan;98278.56;2040113;29;20226;-80
2021/06/22 04:55:13;;;;;;;30.03;26.07;;;;;;;21.50;nan;98304.94;2048234;28;20473;-79
2021/06/22 04:56:14;;;;;;;29.83;26.57;;;;;;;21.62;nan;98317.34;2038811;28;20928;-80
2021/06/22 04:57:19;;;;;;;34.53;28.37;;;;;;;21.68;nan;98305.72;2048539;28;20464;-80
2021/06/22 04:58:21;;;;;;;33.23;28.97;;;;;;;21.77;nan;98318.91;2040455;28;20462;-80
2021/06/22 04:59:23;;;;;;;30.70;27.60;;;;;;;21.79;nan;98322.00;2040577;29;20474;-80
2021/06/22 05:00:26;;;;;;;34.40;27.97;;;;;;;21.79;nan;98322.00;2038765;28;20461;-80
2021/06/22 05:01:27;;;;;;;37.97;28.77;;;;;;;21.78;nan;98319.69;2047880;28;20598;-80
2021/06/22 05:02:29;;;;;;;31.07;27.97;;;;;;;21.80;nan;98311.94;2040079;29;20536;-80
2021/06/22 05:03:30;;;;;;;30.37;27.23;;;;;;;;;;2040188;29;20226;-80
2021/06/22 05:04:31;;;;;;;39.27;28.60;;;;;;;;;;2040276;29;20454;-80
2021/06/22 05:05:32;;;;;;;30.13;27.30;;;;;;;21.89;nan;98320.44;2048305;28;20242;-80
2021/06/22 05:06:34;;;;;;;33.33;26.87;;;;;;;21.96;nan;98310.34;2047961;28;20955;-80
2021/06/22 05:07:35;;;;;;;32.77;27.87;;;;;;;21.91;nan;98318.16;2048200;28;20241;-80
2021/06/22 05:08:37;;;;;;;32.87;27.77;;;;;;;21.98;nan;98313.47;2047946;28;20485;-80
2021/06/22 05:09:37;;;;;;;31.97;26.93;;;;;;;21.97;nan;98327.44;2039822;28;20747;-79
2021/06/22 05:10:39;;;;;;;33.33;28.10;;;;;;;21.94;nan;98307.25;2040137;29;20837;-80
2021/06/22 05:11:40;;;;;;;43.30;28.33;;;;;;;;;;2048203;28;20234;-80
2021/06/22 05:12:43;;;;;;;31.47;28.17;;;;;;;22.00;nan;98327.44;2047802;28;20473;-80
2021/06/22 05:13:44;;;;;;;32.63;27.50;;;;;;;22.01;nan;98329.00;2048398;28;20245;-80
2021/06/22 05:14:48;;;;;;;30.27;26.80;;;;;;;21.99;nan;98320.47;2056775;28;20476;-81